Ana Sayfa
METAR-TAF:

METAR-TAF

Havaalanları :

Curaçao, Hollanda Antilleri

Enlem: 12-12N, Boylam: 068-58W, yükseklik: 9 m

Güncel hava durumu gözlemi

Rapor saat 21:00 UTC de 38 dakika önce yapıldı.
Rüzgar doğu/güneydoğudan 12 kt
Sıcaklık 29°C
Nem 70%
Basınç 1010 hPa
Görüş mesafesi 10 km veya daha fazla

METAR: TNCC 202100Z AUTO 11012KT 9999 NSC 29/23 Q1010 NOSIG

Saat: 17:38 (21:38 UTC)

Tahmin

Rapor saat 15:44 UTC de 5 saat ve 54 dakika önce yapıldı.
Ayın 20'si saat 18 UTC'den ayın 21'si saat 18 UTC'ye kadar geçerli Tahmin
Rüzgar doğudan 14 kt ve 26 kt'a kadar ani rüzgarlar
Görüş mesafesi 10 km veya daha fazla
2200 ft yükseklikte parçalı bulutlu
Olasılık 30% :
Geçici
ayın 21'si saat 04 UTC'den ayın 21'si saat 12 UTC'ye kadar
1500 ft yükseklikte parçalı çok bulutlu

TAF: TNCC 201544Z 2018/2118 10014G26KT 9999 SCT022 PROB30 TEMPO 2104/2112 BKN015

4.000'den fazla havaalanı için hava durumu gözlemleri ve tahminleri (METAR ve TAF raporları).

Kullanılabilir istasyonlar harita üzerinde sarı ve kırmızı noktalarla gösterilir.

İstasyonun adını görmek için fareyi noktanın üzerinde gezdirin.

Sonrasında hava gözlem ve tahminlerini görmek için tıklayın.

Haritayı değiştirmek için: yaklaştırmak için siyah artı işaretli yeşil düğmeye ve uzaklaştırmak için de eksi işaretli düğmeye hızla tıklayın; bitişik haritalar için yeşil okları kullanın.


METAR-TAF: